Long Creek, SC (29658)

7:49 AM EST on March 05, 2015 (GMT -0500)
Long Creek Woods | Change Station
CLOSE
Current Station
Personal Weather Station
Location: Long Creek, SC
Elevation: 1674 ft
Nearby Weather Stations

Elev 1674 ft 34.75 °N, 83.28 °W | Updated 10 seconds ago

Overcast
Overcast
62.2 °F
Feels Like 62.2 °F
N
3.6
Wind Variable Wind from South
Gusts 4.9 mph

Today
High -- | Low -- °F
--% Chance of Precip.
Yesterday
High -- | Low -- °F
Precip. -- in
6:57 AM 6:32 PM
Full, 100% visible
Pressure 29.85 in
Visibility 5.0 miles
Clouds Overcast 600 ft
Dew Point 59 °F
Humidity 89%
Rainfall in
Snow Depth Not available.
UV 0 out of 12
Pollen 3.20 out of 12
Air Quality Not available.
Flu Activity Not available.
METAR KTOC 051235Z AUTO 22005KT 5SM RA OVC006 18/18 A2985 RMK AO2 T01800175

More Conditions Fewer Conditions

Pressure 29.85 in
Visibility 5.0 miles
Clouds Overcast 600 ft
Dew Point 59 °F
Humidity 89%
Rainfall in
Snow Depth Not available.
UV 0 out of 12
Pollen 3.20 out of 12
Air Quality Not available.
Flu Activity Not available.
METAR KTOC 051235Z AUTO 22005KT 5SM RA OVC006 18/18 A2985 RMK AO2 T01800175

More Conditions Fewer Conditions

10-Day Weather Forecast

Almanac

Astronomy

Mar. 05, 2015 Rise Set
Actual Time
Civil Twilight
Nautical Twilight
Astronomical Twilight
Moon
Length of Visible Light
Length of Day
Tomorrow will be .
, % of the Moon is Illuminated

Today's Extremes

State Highs State Lows

Community

WunderPhotos

Upload Photos

1,802,737 photos uploaded!

WunderBlogs® & News

Nearby

Air Quality

  Air Quality AQ Index Pollutant
Not available.

Snow Depth

Station Depth Elevation

Earthquake Activity

City Distance Mag. Time & Date
Minimum magnitude displayed is 2.5.

Coastal Water Temperatures

Place Temperature

Nearby Weather Stations